Mar Lin, Pennsylvania
Current Conditions -  °F | °C
As of 3:58 PM on Friday 28 Nov 2014 (Local Time) from KMUI Reporting Station
Few Clouds Few Clouds  
Wind Chill: 24°   Ceiling: Unl
Heat Index: 33°   Visibility: 10mi
Dew Point: 14°   Wind: 10mph
Humidity: 46%   Direction: 280°W
Pressure: 30.23"   Gusts: NA
Location:  40.68°N, 76.24°W
Report Text: KMUI 282058Z AUTO 28009KT 10SM FEW045 00/M10 A3023 RMK AO2 SLP245 T00041101 55001 $
Loading
Personal Weather Stations






























Interactive Weather Map New forecast layout! Learn more

10-Day Weather Forecast

Advertisements
Track Severe Weather on mobile